Flight Track Log - Related Links

Times and Time Zones

All times are in EDT time to prevent confusion due to time zone crossing. See the SWA542 flight status page for this flight to view local times or setup timezone preferences in your user account.

Time Position Orientation Groundspeed Altitude Reporting Facility
EDT Latitude Longitude Course Direction KTS MPH feet Rate Location/Type
Sun 09:18:22 AM 36.1167 -86.6000 97° East 236 272 3,700  Level Nashville TRACON
Sun 09:19:18 AM 36.0478 -86.5778 165° South 242 278 5,900 2,797 Climbing Memphis Center
Sun 09:20:20 AM 35.9692 -86.5494 164° South 277 319 9,200 2,903 Climbing Memphis Center
Sun 09:21:22 AM 35.8817 -86.5192 164° South 310 357 11,900 2,732 Climbing Memphis Center
Sun 09:22:23 AM 35.7842 -86.4831 163° South 353 406 14,800 2,780 Climbing Memphis Center
Sun 09:23:25 AM 35.6789 -86.4508 166° South 378 435 17,600 2,661 Climbing Memphis Center
Sun 09:24:27 AM 35.5689 -86.4297 171° South 389 448 20,300 2,537 Climbing Memphis Center
Sun 09:25:28 AM 35.4572 -86.4064 170° South 396 456 22,800 2,244 Climbing Memphis Center
Sun 09:26:30 AM 35.3422 -86.3725 166° South 415 478 24,900 1,790 Climbing Memphis Center
Sun 09:27:32 AM 35.2317 -86.3075 154° Southeast 428 493 26,500 1,561 Climbing Memphis Center
Sun 09:28:33 AM 35.1131 -86.2433 156° South 451 519 28,100 1,659 Climbing Memphis Center
Sun 09:29:35 AM 34.9803 -86.1758 157° South 461 531 29,900 1,645 Climbing Memphis Center
Sun 09:30:37 AM 34.8550 -86.1233 161° South 469 540 31,500 1,610 Climbing Memphis Center
Sun 09:31:38 AM 34.7383 -86.0739 161° South 474 545 33,200 1,650 Climbing Memphis Center
Sun 09:32:37 AM 34.6158 -86.0186 160° South 472 543 34,800 1,475 Climbing Atlanta Center
Sun 09:33:40 AM 34.4906 -85.9644 160° South 473 544 36,200 1,440 Climbing Atlanta Center
Sun 09:34:42 AM 34.3403 -85.9008 161° South 474 545 37,800 1,355 Climbing Atlanta Center
Sun 09:35:44 AM 34.2161 -85.8489 161° South 474 545 39,000 581 Climbing Atlanta Center
Sun 09:36:46 AM 34.1022 -85.8019 161° South 472 543 39,000  Level Atlanta Center
Sun 09:37:48 AM 33.9553 -85.7414 161° South 470 541 39,000  Level Atlanta Center
Sun 09:38:50 AM 33.8339 -85.6906 161° South 466 536 39,000  Level Atlanta Center
Sun 09:39:53 AM 33.7119 -85.6414 161° South 464 534 39,000  Level Atlanta Center
Sun 09:40:55 AM 33.5922 -85.5903 160° South 461 531 39,000  Level Atlanta Center
Sun 09:41:57 AM 33.4708 -85.5411 161° South 461 531 39,000  Level Atlanta Center
Sun 09:42:59 AM 33.3242 -85.4789 160° South 464 534 39,000  Level Atlanta Center
Sun 09:44:01 AM 33.2019 -85.4297 161° South 464 534 39,000  Level Atlanta Center
Sun 09:45:04 AM 33.0797 -85.3794 161° South 466 536 39,000  Level Atlanta Center
Sun 09:46:06 AM 32.9492 -85.3253 161° South 466 536 39,000  Level Atlanta Center
Sun 09:47:08 AM 32.8261 -85.2739 161° South 466 536 39,000  Level Atlanta Center
Sun 09:48:10 AM 32.7056 -85.2236 161° South 463 533 39,000  Level Atlanta Center
Sun 09:49:12 AM 32.5836 -85.1744 161° South 463 533 39,000  Level Atlanta Center
Sun 09:50:14 AM 32.4625 -85.1258 161° South 461 531 39,000  Level Atlanta Center
Sun 09:51:17 AM 32.3189 -85.0681 161° South 457 526 39,000  Level Atlanta Center
Sun 09:52:19 AM 32.2131 -85.0264 162° South 457 526 39,000  Level Atlanta Center
Sun 09:53:02 AM 32.1158 -84.9850 160° South 480 552 39,000  Level Jacksonville Center
Sun 09:54:02 AM 31.9975 -84.9381 161° South 469 540 39,000  Level Jacksonville Center
Sun 09:55:02 AM 31.8753 -84.8914 162° South 460 529 39,000  Level Jacksonville Center
Sun 09:56:02 AM 31.7611 -84.8472 162° South 450 518 39,000  Level Jacksonville Center
Sun 09:57:02 AM 31.6428 -84.8008 162° South 450 518 39,000  Level Jacksonville Center
Sun 09:58:02 AM 31.5222 -84.7544 162° South 450 518 39,000  Level Jacksonville Center
Sun 09:59:02 AM 31.4042 -84.7061 161° South 450 518 39,000  Level Jacksonville Center
Sun 10:00:02 AM 31.2856 -84.6622 162° South 450 518 39,000  Level Jacksonville Center
Sun 10:01:02 AM 31.1672 -84.6139 161° South 450 518 39,000  Level Jacksonville Center
Sun 10:02:02 AM 31.0489 -84.5681 162° South 455 524 39,000  Level Jacksonville Center
Sun 10:03:02 AM 30.9283 -84.5225 162° South 455 524 39,000  Level Jacksonville Center
Sun 10:04:02 AM 30.8100 -84.4744 161° South 455 524 39,000  Level Jacksonville Center
Sun 10:05:02 AM 30.6894 -84.4289 162° South 461 531 39,000  Level Jacksonville Center
Sun 10:06:02 AM 30.5711 -84.3811 161° South 461 531 39,000  Level Jacksonville Center
Sun 10:07:02 AM 30.4633 -84.3119 151° Southeast 450 518 39,000  Level Jacksonville Center
Sun 10:08:02 AM 30.3533 -84.2431 152° Southeast 450 518 39,000  Level Jacksonville Center
Sun 10:09:02 AM 30.2456 -84.1742 151° Southeast 450 518 39,000  Level Jacksonville Center
Sun 10:10:02 AM 30.1375 -84.1031 150° Southeast 450 518 39,000  Level Jacksonville Center
Sun 10:11:02 AM 30.0275 -84.0322 151° Southeast 450 518 39,000  Level Jacksonville Center
Sun 10:12:02 AM 29.9197 -83.9639 151° Southeast 450 518 39,000  Level Jacksonville Center
Sun 10:13:02 AM 29.8117 -83.8931 150° Southeast 450 518 39,000  Level Jacksonville Center
Sun 10:14:02 AM 29.7056 -83.8228 150° Southeast 450 518 39,000  Level Jacksonville Center
Sun 10:15:02 AM 29.5892 -83.7786 162° South 445 512 39,000  Level Jacksonville Center
Sun 10:16:02 AM 29.4725 -83.7369 163° South 445 512 39,000  Level Jacksonville Center
Sun 10:17:02 AM 29.3433 -83.6931 164° South 445 512 39,000  Level Jacksonville Center
Sun 10:18:02 AM 29.2247 -83.6517 163° South 445 512 39,000  Level Jacksonville Center
Sun 10:19:02 AM 29.1142 -83.6033 159° South 440 506 39,000  Level Jacksonville Center
Sun 10:20:02 AM 28.9978 -83.5478 157° South 440 506 39,000  Level Jacksonville Center
Sun 10:21:02 AM 28.8831 -83.4947 158° South 446 513 39,000  Level Jacksonville Center
Sun 10:22:02 AM 28.7706 -83.4397 157° South 446 513 39,000  Level Jacksonville Center
Sun 10:23:02 AM 28.6603 -83.3800 155° Southeast 446 513 39,000  Level Jacksonville Center
Sun 10:24:02 AM 28.5500 -83.3181 154° Southeast 441 507 39,000  Level Jacksonville Center
Sun 10:25:02 AM 28.4417 -83.2586 154° Southeast 441 507 39,000  Level Jacksonville Center
Sun 10:26:02 AM 28.3333 -83.1967 153° Southeast 441 507 39,000  Level Jacksonville Center
Sun 10:26:35 AM 28.2886 -83.1731 155° Southeast 443 510 39,000  Level Miami Center
Sun 10:27:37 AM 28.1797 -83.1100 153° Southeast 443 510 39,000  Level Miami Center
Sun 10:28:39 AM 28.0578 -83.0164 146° Southeast 443 510 39,000  Level Miami Center
Sun 10:29:41 AM 27.9561 -82.9400 146° Southeast 440 506 39,000  Level Miami Center
Sun 10:30:43 AM 27.8575 -82.8675 147° Southeast 441 507 39,000  Level Miami Center
Sun 10:31:45 AM 27.7394 -82.7833 148° Southeast 442 509 39,000  Level Miami Center
Sun 10:32:47 AM 27.6314 -82.7039 147° Southeast 442 509 39,000 -97 Level Miami Center
Sun 10:33:49 AM 27.5236 -82.6250 147° Southeast 442 509 38,800 -629 Descending Miami Center
Sun 10:34:51 AM 27.4164 -82.5475 147° Southeast 441 507 37,700 -1,016 Descending Miami Center
Sun 10:35:53 AM 27.3100 -82.4703 147° Southeast 438 504 36,700 -919 Descending Miami Center
Sun 10:36:55 AM 27.2197 -82.4050 147° Southeast 440 506 35,800 -968 Descending Miami Center
Sun 10:37:57 AM 27.0928 -82.3125 147° Southeast 450 518 34,700 -1,016 Descending Miami Center
Sun 10:38:59 AM 26.9864 -82.2364 147° Southeast 450 518 33,700 -919 Descending Miami Center
Sun 10:40:01 AM 26.8825 -82.1614 147° Southeast 448 516 32,800 -919 Descending Miami Center
Sun 10:41:03 AM 26.7928 -82.0672 137° Southeast 449 517 31,800 -1,548 Descending Miami Center
Sun 10:42:05 AM 26.7233 -81.9542 124° Southeast 447 514 29,600 -2,371 Descending Miami Center
Sun 10:43:07 AM 26.6536 -81.8414 125° Southeast 445 512 26,900 -2,806 Descending Miami Center
Sun 10:44:09 AM 26.5714 -81.7078 125° Southeast 439 505 23,800 -2,710 Descending Miami Center
Sun 10:45:11 AM 26.5008 -81.5975 126° Southeast 413 475 21,300 -2,323 Descending Miami Center
Sun 10:46:13 AM 26.4414 -81.5019 125° Southeast 402 463 19,000 -2,274 Descending Miami Center
Sun 10:47:15 AM 26.3742 -81.3953 125° Southeast 393 452 16,600 -2,468 Descending Miami Center
Sun 10:48:17 AM 26.3089 -81.2919 125° Southeast 378 435 13,900 -2,400 Descending Miami Center
Sun 10:49:20 AM 26.2508 -81.1986 125° Southeast 374 430 11,600 -2,286 Descending Miami Center
Sun 10:49:41 AM 26.2283 -81.1625 125° Southeast 364 419 10,700 -1,355 Descending Miami Center
Sun 10:50:22 AM 26.1908 -81.1042 126° Southeast 346 398 10,200 -932 Descending Miami Center
Sun 10:51:24 AM 26.1428 -81.0286 125° Southeast 304 350 9,100 -1,210 Descending Miami Center
Sun 10:52:26 AM 26.1011 -80.9406 118° Southeast 295 339 7,700 -1,317 Descending Miami Center
Sun 10:53:27 AM 26.0794 -80.8550 106° East 287 330 6,400 -885 Descending Miami Center
Sun 10:54:28 AM 26.0792 -80.7669 90° East 276 318 5,900 -240 Descending Miami Center
Sun 10:55:32 AM 26.0806 -80.7025 89° East 246 283 5,900 49 Level Miami Center
Sun 10:56:30 AM 26.0786 -80.6183 91° East 240 276 6,000 -151 Climbing Miami Center
Sun 10:57:31 AM 26.0789 -80.5464 90° East 214 246 5,600 -492 Descending Miami Center
Sun 10:58:32 AM 26.0789 -80.4817 90° East 216 249 5,000 -787 Descending Miami Center
Sun 10:59:33 AM 26.0772 -80.4119 92° East 213 245 4,000 -976 Descending Miami Center
Sun 11:00:35 AM 26.0789 -80.3517 88° East 192 221 3,000 -927 Descending Miami Center
Sun 11:01:36 AM 26.0786 -80.2914 90° East 181 208 2,100 -931 Descending Miami Center
Sun 11:02:31 AM 26.0775 -80.2425 91° East 167 192 1,200 -686 Descending Miami Center
Sun 11:02:46 AM 26.0775 -80.2386 90° East 181 208 1,300 -689 Climbing Miami Center
Sun 11:03:32 AM 26.0761 -80.1983 92° East 135 155 500 -762 Descending Miami Center
Sun 11:03:49 AM 26.0767 -80.1878 87° East 139 160 500 14,051 Level Miami Center
Sun 11:04:51 AM 26.0764 -80.1494 90° East 139 160 19,000 17,903 Climbing Miami Center
Sun 11:06:00 AM 26.0667 -80.1500 180° South  Level FlightAware

Login

Don't have an account? Register now (free) for customized features, flight alerts, and more!